createdAt,value
2023-02-25T00:01:08.847Z,100.00
2023-02-25T00:03:36.728Z,100.00
2023-02-25T00:06:05.197Z,100.00
2023-02-25T00:08:34.822Z,100.00
2023-02-25T00:11:05.742Z,100.00
2023-02-25T00:13:34.130Z,100.00
2023-02-25T00:16:04.216Z,100.00
2023-02-25T00:18:32.004Z,100.00
2023-02-25T00:21:03.063Z,100.00
2023-02-25T00:23:30.721Z,100.00
2023-02-25T00:26:05.507Z,100.00
2023-02-25T00:28:34.362Z,99.81
2023-02-25T00:31:07.166Z,100.00
2023-02-25T00:33:35.055Z,100.00
2023-02-25T00:36:08.623Z,100.00
2023-02-25T00:38:38.424Z,100.00
2023-02-25T00:41:12.625Z,100.00
2023-02-25T00:43:42.324Z,100.00
2023-02-25T00:46:10.818Z,100.00
2023-02-25T00:48:39.146Z,100.00
2023-02-25T00:51:11.715Z,100.00
2023-02-25T00:53:40.612Z,100.00
2023-02-25T00:56:15.047Z,100.00
2023-02-25T00:58:43.760Z,100.00
2023-02-25T01:04:20.588Z,99.55
2023-02-25T01:12:13.075Z,99.62
2023-02-25T01:17:22.908Z,99.61
2023-02-25T01:19:50.917Z,100.00
2023-02-25T01:22:18.954Z,99.62
2023-02-25T01:24:46.794Z,100.00
2023-02-25T01:28:08.650Z,99.26
2023-02-25T01:33:51.573Z,100.00
2023-02-25T01:36:24.988Z,99.63
2023-02-25T01:38:53.251Z,99.46
2023-02-25T01:41:20.965Z,99.15
2023-02-25T01:44:15.253Z,98.89
2023-02-25T01:46:48.717Z,98.85
2023-02-25T01:49:19.442Z,98.64
2023-02-25T01:51:49.862Z,99.35
2023-02-25T01:54:18.750Z,99.01
2023-02-25T01:56:50.906Z,98.93
2023-02-25T01:59:20.129Z,98.31
2023-02-25T02:01:50.973Z,98.16
2023-02-25T02:04:19.879Z,98.43
2023-02-25T02:06:49.775Z,98.02
2023-02-25T02:09:20.159Z,97.98
2023-02-25T02:11:48.572Z,97.07
2023-02-25T02:14:18.957Z,96.73
2023-02-25T02:17:06.148Z,97.00
2023-02-25T02:19:43.460Z,97.19
2023-02-25T02:22:14.064Z,97.26
2023-02-25T02:24:56.791Z,96.58
2023-02-25T02:27:25.829Z,95.86
2023-02-25T02:30:17.521Z,95.68
2023-02-25T02:32:49.630Z,95.80
2023-02-25T02:35:22.437Z,96.36
2023-02-25T02:38:00.974Z,96.10
2023-02-25T02:40:46.463Z,96.15
2023-02-25T02:43:25.135Z,95.68
2023-02-25T02:45:59.852Z,95.84
2023-02-25T02:48:35.878Z,95.86
2023-02-25T02:51:06.262Z,95.86
2023-02-25T03:53:35.285Z,94.78
2023-02-25T04:06:35.267Z,95.42
2023-02-25T04:09:06.363Z,94.97
2023-02-25T04:11:34.441Z,94.62
2023-02-25T04:14:02.209Z,93.85
2023-02-25T04:16:30.005Z,93.80
2023-02-25T04:19:00.212Z,93.73
2023-02-25T04:21:30.090Z,93.07
2023-02-25T04:23:58.281Z,92.76
2023-02-25T04:26:28.046Z,91.91
2023-02-25T04:28:55.841Z,92.47
2023-02-25T04:31:24.257Z,91.88
2023-02-25T04:33:52.324Z,92.33
2023-02-25T04:36:25.476Z,92.36
2023-02-25T04:38:53.327Z,92.80
2023-02-25T04:41:21.125Z,92.73
2023-02-25T04:43:50.185Z,92.77
2023-02-25T04:57:13.232Z,91.95
2023-02-25T05:02:34.938Z,91.13
2023-02-25T05:05:02.892Z,91.16
2023-02-25T05:10:07.140Z,90.28
2023-02-25T05:12:34.829Z,89.80
2023-02-25T05:15:05.297Z,90.69
2023-02-25T05:17:33.614Z,90.62
2023-02-25T05:20:01.844Z,91.12
2023-02-25T05:22:30.047Z,91.30
2023-02-25T05:24:57.877Z,91.23
2023-02-25T05:27:25.603Z,91.85
2023-02-25T05:29:54.751Z,90.89
2023-02-25T05:32:24.108Z,91.89
2023-02-25T05:34:52.010Z,91.27
2023-02-25T05:37:19.816Z,90.82
2023-02-25T05:39:47.495Z,91.64
2023-02-25T05:42:15.264Z,91.14
2023-02-25T05:44:43.055Z,91.76
2023-02-25T05:47:11.028Z,91.59
2023-02-25T05:49:40.314Z,92.02
2023-02-25T05:52:08.048Z,91.93
2023-02-25T05:54:35.783Z,91.85
2023-02-25T05:57:03.496Z,91.61
2023-02-25T05:59:32.112Z,92.57
2023-02-25T06:01:59.890Z,91.98
2023-02-25T06:04:30.529Z,92.37
2023-02-25T06:09:43.911Z,92.75
2023-02-25T06:12:11.601Z,92.92
2023-02-25T06:14:39.351Z,92.91
2023-02-25T06:17:07.022Z,93.03
2023-02-25T06:19:34.717Z,92.86
2023-02-25T06:22:03.243Z,93.33
2023-02-25T06:27:19.024Z,92.75
2023-02-25T06:29:48.283Z,92.18
2023-02-25T06:32:28.656Z,92.47
2023-02-25T06:34:57.010Z,92.18
2023-02-25T06:53:39.814Z,95.01
2023-02-25T06:58:58.353Z,95.43
2023-02-25T07:01:46.811Z,95.43
2023-02-25T07:04:18.247Z,94.06
2023-02-25T07:07:11.805Z,94.07
2023-02-25T07:15:02.514Z,94.67
2023-02-25T07:17:30.868Z,94.00
2023-02-25T07:19:58.963Z,94.65
2023-02-25T07:22:26.958Z,94.11
2023-02-25T07:24:54.927Z,94.31
2023-02-25T07:27:22.814Z,93.80
2023-02-25T07:29:56.374Z,93.84
2023-02-25T07:32:31.231Z,94.31
2023-02-25T07:34:59.892Z,94.21
2023-02-25T07:37:27.838Z,95.40
2023-02-25T07:39:58.394Z,96.37
2023-02-25T07:42:27.413Z,96.40
2023-02-25T07:44:56.540Z,96.50
2023-02-25T07:47:28.902Z,97.33
2023-02-25T07:50:01.252Z,97.83
2023-02-25T07:52:32.232Z,97.64
2023-02-25T07:55:01.110Z,97.92
2023-02-25T07:57:39.441Z,98.04
2023-02-25T08:00:11.821Z,97.55
2023-02-25T08:02:50.233Z,97.67
2023-02-25T08:05:23.442Z,97.41
2023-02-25T08:07:53.587Z,96.44
2023-02-25T08:10:24.542Z,97.16
2023-02-25T08:12:53.139Z,97.47
2023-02-25T08:15:21.812Z,97.26
2023-02-25T08:17:53.547Z,97.26
2023-02-25T08:20:21.796Z,97.19
2023-02-25T08:22:51.089Z,97.98
2023-02-25T08:25:20.604Z,97.82
2023-02-25T08:27:48.895Z,97.68
2023-02-25T08:30:17.492Z,96.21
2023-02-25T08:32:49.439Z,97.29
2023-02-25T08:35:20.655Z,96.40
2023-02-25T08:38:03.857Z,96.60
2023-02-25T08:40:33.839Z,96.25
2023-02-25T08:43:03.175Z,96.01
2023-02-25T08:45:31.149Z,95.41
2023-02-25T08:47:59.065Z,96.20
2023-02-25T08:53:25.428Z,97.53
2023-02-25T08:58:35.617Z,99.93
2023-02-25T09:01:12.532Z,100.00
2023-02-25T09:06:23.913Z,100.00
2023-02-25T09:22:46.165Z,100.00
2023-02-25T09:25:19.025Z,100.00
2023-02-25T09:27:47.254Z,100.00
2023-02-25T09:30:18.532Z,100.00
2023-02-25T09:40:55.909Z,100.00
2023-02-25T09:51:30.205Z,100.00
2023-02-25T09:54:12.322Z,100.00
2023-02-25T09:59:24.640Z,100.00
2023-02-25T10:07:16.130Z,100.00
2023-02-25T10:09:50.024Z,100.00
2023-02-25T10:12:28.130Z,100.00
2023-02-25T10:15:25.258Z,100.00
2023-02-25T10:18:05.789Z,100.00
2023-02-25T10:20:45.250Z,100.00
2023-02-25T10:28:47.036Z,100.00
2023-02-25T11:06:17.485Z,96.13
2023-02-25T11:08:48.476Z,95.97
2023-02-25T11:13:58.153Z,92.69
2023-02-25T11:59:56.454Z,88.06
2023-02-25T12:05:27.935Z,87.40
2023-02-25T12:11:00.520Z,86.83
2023-02-25T12:22:03.754Z,83.97
2023-02-25T12:24:52.297Z,84.01
2023-02-25T12:27:39.806Z,83.74
2023-02-25T12:36:29.493Z,83.11
2023-02-25T12:39:23.307Z,81.10
2023-02-25T12:42:01.101Z,79.52
2023-02-25T13:40:44.491Z,72.90
2023-02-25T13:43:28.535Z,73.52
2023-02-25T13:46:03.704Z,72.99
2023-02-25T13:48:47.020Z,73.88
2023-02-25T13:51:42.227Z,74.08
2023-02-25T13:54:36.048Z,74.36
2023-02-25T13:57:26.517Z,72.83
2023-02-25T14:06:38.272Z,72.36
2023-02-25T14:23:33.780Z,71.68
2023-02-25T14:56:22.949Z,71.09
2023-02-25T14:59:07.357Z,70.94
2023-02-25T15:01:44.381Z,71.66
2023-02-25T15:04:25.262Z,71.56
2023-02-25T15:07:01.127Z,71.51
2023-02-25T15:09:46.847Z,71.00
2023-02-25T15:12:24.950Z,69.85
2023-02-25T15:15:26.942Z,68.90
2023-02-25T15:18:34.427Z,68.94
2023-02-25T15:21:55.454Z,69.19
2023-02-25T15:24:44.277Z,68.89
2023-02-25T15:27:46.881Z,70.01
2023-02-25T15:30:21.966Z,70.08
2023-02-25T15:33:14.044Z,69.03
2023-02-25T15:36:01.359Z,68.75
2023-02-25T15:38:54.243Z,69.26
2023-02-25T15:41:44.845Z,69.07
2023-02-25T15:44:35.792Z,69.21
2023-02-25T15:47:28.068Z,69.68
2023-02-25T15:50:01.280Z,69.93
2023-02-25T15:52:54.605Z,70.23
2023-02-25T15:55:35.878Z,70.67
2023-02-25T15:58:04.442Z,70.61
2023-02-25T16:00:58.512Z,70.67
2023-02-25T16:03:39.724Z,70.66
2023-02-25T16:06:12.508Z,71.09
2023-02-25T16:08:44.453Z,70.77
2023-02-25T16:11:22.755Z,70.54
2023-02-25T16:13:51.158Z,70.41
2023-02-25T16:16:19.058Z,69.97
2023-02-25T16:18:50.503Z,70.05
2023-02-25T16:21:23.880Z,70.04
2023-02-25T16:23:51.730Z,70.24
2023-02-25T16:26:31.237Z,69.42
2023-02-25T16:29:11.210Z,70.63
2023-02-25T16:31:43.362Z,70.09
2023-02-25T16:34:16.303Z,70.26
2023-02-25T16:36:49.054Z,70.84
2023-02-25T16:39:19.675Z,70.74
2023-02-25T16:41:47.592Z,70.51
2023-02-25T16:44:20.040Z,70.67
2023-02-25T16:46:51.011Z,70.92
2023-02-25T16:49:22.995Z,70.39
2023-02-25T16:51:54.284Z,70.49
2023-02-25T16:54:24.220Z,70.52
2023-02-25T16:56:55.414Z,69.99
2023-02-25T16:59:24.069Z,69.82
2023-02-25T17:01:56.852Z,70.00
2023-02-25T17:04:29.524Z,70.33
2023-02-25T17:07:14.367Z,69.97
2023-02-25T17:09:46.529Z,70.09
2023-02-25T17:12:17.792Z,69.91
2023-02-25T17:14:47.137Z,70.46
2023-02-25T17:17:18.242Z,70.70
2023-02-25T17:19:47.262Z,70.99
2023-02-25T17:22:20.275Z,71.01
2023-02-25T17:24:48.024Z,70.95
2023-02-25T17:27:15.726Z,71.06
2023-02-25T17:29:43.305Z,71.57
2023-02-25T17:32:20.070Z,71.79
2023-02-25T17:34:51.313Z,71.81
2023-02-25T17:37:19.615Z,71.82
2023-02-25T17:39:47.980Z,71.54
2023-02-25T17:42:30.217Z,71.27
2023-02-25T17:44:58.653Z,71.33
2023-02-25T17:47:28.490Z,71.78
2023-02-25T17:49:59.069Z,72.00
2023-02-25T17:52:28.311Z,72.30
2023-02-25T17:54:59.664Z,72.18
2023-02-25T17:57:29.324Z,71.71
2023-02-25T18:00:05.511Z,72.66
2023-02-25T18:02:37.916Z,72.75
2023-02-25T18:05:31.349Z,72.43
2023-02-25T18:08:15.144Z,72.39
2023-02-25T18:10:55.370Z,71.95
2023-02-25T18:13:27.779Z,72.88
2023-02-25T18:16:31.997Z,72.21
2023-02-25T18:19:03.070Z,72.62
2023-02-25T18:21:32.427Z,71.73
2023-02-25T18:24:03.411Z,72.21
2023-02-25T18:26:31.752Z,73.28
2023-02-25T18:28:59.202Z,72.84
2023-02-25T18:31:26.903Z,72.89
2023-02-25T18:33:55.041Z,72.83
2023-02-25T18:36:25.671Z,72.51
2023-02-25T18:38:56.749Z,73.22
2023-02-25T18:41:25.938Z,73.34
2023-02-25T18:43:54.522Z,73.42
2023-02-25T18:46:22.621Z,73.71
2023-02-25T18:48:51.034Z,73.59
2023-02-25T18:51:19.642Z,73.45
2023-02-25T18:53:47.174Z,73.49
2023-02-25T18:56:17.954Z,73.71
2023-02-25T18:58:45.708Z,73.30
2023-02-25T19:01:20.425Z,72.98
2023-02-25T19:03:48.451Z,73.41
2023-02-25T19:06:16.134Z,73.87
2023-02-25T19:08:43.695Z,73.78
2023-02-25T19:11:12.336Z,73.56
2023-02-25T19:13:43.042Z,73.31
2023-02-25T19:16:10.974Z,73.63
2023-02-25T19:18:39.442Z,73.95
2023-02-25T19:21:10.902Z,74.13
2023-02-25T19:23:38.529Z,74.27
2023-02-25T19:26:06.568Z,75.20
2023-02-25T19:28:34.398Z,75.68
2023-02-25T19:31:05.355Z,76.25
2023-02-25T19:33:32.944Z,77.30
2023-02-25T19:36:03.348Z,78.95
2023-02-25T19:38:31.171Z,80.19
2023-02-25T19:41:02.036Z,80.58
2023-02-25T19:43:31.295Z,80.44
2023-02-25T19:45:58.890Z,81.01
2023-02-25T19:48:27.916Z,81.90
2023-02-25T19:50:55.517Z,82.58
2023-02-25T19:53:23.154Z,83.31
2023-02-25T19:55:50.809Z,82.86
2023-02-25T19:58:18.433Z,83.13
2023-02-25T20:00:46.844Z,85.18
2023-02-25T20:03:15.339Z,87.71
2023-02-25T20:05:44.722Z,87.32
2023-02-25T20:08:14.585Z,86.11
2023-02-25T20:10:43.717Z,85.56
2023-02-25T20:13:11.392Z,85.91
2023-02-25T20:15:39.063Z,85.38
2023-02-25T20:18:06.815Z,85.19
2023-02-25T20:20:34.448Z,83.60
2023-02-25T20:23:04.832Z,83.00
2023-02-25T20:25:32.332Z,82.81
2023-02-25T20:27:59.838Z,83.05
2023-02-25T20:30:27.389Z,84.12
2023-02-25T20:32:55.116Z,83.36
2023-02-25T20:35:26.114Z,84.77
2023-02-25T20:38:12.104Z,84.99
2023-02-25T20:40:40.076Z,84.35
2023-02-25T20:43:07.771Z,85.14
2023-02-25T20:45:35.826Z,84.52
2023-02-25T20:48:03.492Z,84.82
2023-02-25T20:50:31.326Z,83.80
2023-02-25T20:52:59.321Z,85.39
2023-02-25T20:55:28.086Z,85.96
2023-02-25T20:57:55.733Z,85.63
2023-02-25T21:00:26.038Z,85.79
2023-02-25T21:02:53.429Z,86.21
2023-02-25T21:05:20.878Z,85.80
2023-02-25T21:07:48.788Z,86.28
2023-02-25T21:10:16.735Z,85.64
2023-02-25T21:12:45.840Z,86.43
2023-02-25T21:15:13.417Z,85.44
2023-02-25T21:17:42.273Z,85.07
2023-02-25T21:20:10.929Z,85.09
2023-02-25T21:22:38.524Z,84.61
2023-02-25T21:25:06.424Z,85.12
2023-02-25T21:27:34.165Z,84.49
2023-02-25T21:30:03.039Z,83.97
2023-02-25T21:32:30.464Z,84.41
2023-02-25T21:34:57.991Z,83.34
2023-02-25T21:37:25.528Z,83.51
2023-02-25T21:39:53.018Z,84.15
2023-02-25T21:42:20.503Z,84.48
2023-02-25T21:44:48.257Z,84.05
2023-02-25T21:47:17.106Z,84.21
2023-02-25T21:49:45.273Z,84.61
2023-02-25T21:52:12.682Z,85.10
2023-02-25T21:54:40.238Z,84.69
2023-02-25T21:57:07.712Z,84.45
2023-02-25T21:59:35.331Z,84.17
2023-02-25T22:02:04.895Z,85.06
2023-02-25T22:04:33.789Z,85.01
2023-02-25T22:07:01.327Z,83.90
2023-02-25T22:09:28.981Z,83.49
2023-02-25T22:11:57.035Z,82.75
2023-02-25T22:14:26.219Z,82.82
2023-02-25T22:16:53.707Z,82.98
2023-02-25T22:19:21.193Z,82.72
2023-02-25T22:21:50.165Z,82.74
2023-02-25T22:24:17.815Z,82.60
2023-02-25T22:26:47.195Z,82.35
2023-02-25T22:29:14.856Z,82.62
2023-02-25T22:31:42.484Z,82.61
2023-02-25T22:34:10.256Z,81.84
2023-02-25T22:36:38.460Z,81.83
2023-02-25T22:39:08.470Z,82.40
2023-02-25T22:41:36.535Z,82.45
2023-02-25T22:44:05.234Z,82.36
2023-02-25T22:46:35.944Z,82.13
2023-02-25T22:49:04.023Z,82.38
2023-02-25T22:51:33.366Z,81.70
2023-02-25T22:54:01.007Z,82.41
2023-02-25T22:56:29.853Z,81.90
2023-02-25T22:58:57.373Z,82.38
2023-02-25T23:01:25.782Z,83.37
2023-02-25T23:03:54.500Z,84.50
2023-02-25T23:06:34.256Z,83.73
2023-02-25T23:09:08.780Z,83.33
2023-02-25T23:11:37.624Z,82.78
2023-02-25T23:14:05.834Z,83.46
2023-02-25T23:16:35.543Z,84.17
2023-02-25T23:19:05.029Z,84.74
2023-02-25T23:21:33.068Z,84.59
2023-02-25T23:24:01.899Z,85.27
2023-02-25T23:26:33.273Z,87.33
2023-02-25T23:29:05.447Z,90.01
2023-02-25T23:31:34.642Z,91.17
2023-02-25T23:34:03.776Z,91.50
2023-02-25T23:36:31.511Z,92.26
2023-02-25T23:39:01.036Z,91.69
2023-02-25T23:41:29.475Z,90.31
2023-02-25T23:43:59.045Z,90.78
2023-02-25T23:46:30.124Z,89.44
2023-02-25T23:48:59.052Z,89.11
2023-02-25T23:51:27.203Z,87.54
2023-02-25T23:53:55.622Z,86.51
2023-02-25T23:56:23.883Z,86.93
2023-02-25T23:58:53.604Z,86.94
